BGSO2: Deep Fork River, Beggs, Okla

Data processed at Fri Aug 18 2017 20:19


All information presented herein is the property of the government of the United States of America and may be revised or deleted at any time without prior notice.
Dissemination of this information without the expressed written consent of the Public Affairs Office, Tulsa District U.S. Army Corps of Engineers is strictly prohibited.
These data are gathered electronically and, as presented, have not undergone any form of quality control. These data are not guaranteed to be valid or correct.
Go to home page.
Go to station list.

Upstream stations:

Downstream station:
Previous Day
Next Day
Current Day
    
SHEF ID:       BGSO2     Deep Fork near Beggs, OK
STATION TYPE:  

               PRECIP     STAGE  STAGE(2)  RIV-FLOW  BAT-LOAD
                   in        ft        ft       cfs      volt
              Ccp-Rev   Ccp-Rev   Ccp-Rev   Ccp-Rev   Ccp-Rev
(US/Central)
08/18 00:00      0.00      9.96     10.22      3453     12.57
08/18 01:00      0.00      9.85     10.11      3395     12.57
08/18 02:00      0.00      9.80     10.02      3370     12.57
08/18 03:00      0.00      9.64      9.93      3288     12.49
08/18 04:00      0.00      9.65      9.83      3293     12.49
08/18 05:00      0.00      9.47      9.75      3201     12.49
08/18 06:00      0.00      9.45      9.68      3191     12.49
08/18 07:00      0.00      9.33      9.60      3131     12.41
08/18 08:00      0.00      9.36      9.53      3146     12.41
08/18 09:00      0.00      9.33      9.45      3131     12.65
08/18 10:00      0.00      9.16      9.41      3047     13.21
08/18 11:00      0.00      9.09      9.36      3012     13.29
08/18 12:00      0.00      9.15      9.29      3042     13.44
08/18 13:00      0.00      8.86      9.24      2900     13.44
08/18 14:00      0.00      8.98      9.22      2958     13.29
08/18 15:00      0.00      8.97      9.17      2954     13.13
08/18 16:00      0.00      8.88      9.12      2910     13.21
08/18 17:00      0.00      8.93      9.10      2934     13.21
08/18 18:00      0.00      8.86      9.08      2900     13.05
08/18 19:00      0.00      8.75      9.06      2847     12.81
08/18 20:00      0.00      8.88      9.05      2910     12.65
08/18 21:00      ----      ----      ----      ----      ----
08/18 22:00      ----      ----      ----      ----      ----
08/18 23:00      ----      ----      ----      ----      ----